createdAt,value
2018-02-19T00:02:13.638Z,7.93
2018-02-19T00:04:41.289Z,7.77
2018-02-19T00:07:08.926Z,8.90
2018-02-19T00:09:36.598Z,6.87
2018-02-19T00:12:04.347Z,6.17
2018-02-19T00:14:31.994Z,7.93
2018-02-19T00:16:59.659Z,6.13
2018-02-19T00:19:27.321Z,7.67
2018-02-19T00:21:54.975Z,8.63
2018-02-19T00:24:22.615Z,8.10
2018-02-19T00:26:50.262Z,8.83
2018-02-19T00:29:18.680Z,7.87
2018-02-19T00:31:46.335Z,7.87
2018-02-19T00:34:14.015Z,6.70
2018-02-19T00:36:41.693Z,6.40
2018-02-19T00:39:09.352Z,8.27
2018-02-19T00:41:37.030Z,11.00
2018-02-19T00:44:05.434Z,9.03
2018-02-19T00:46:33.128Z,7.80
2018-02-19T00:49:00.785Z,11.40
2018-02-19T00:51:28.419Z,7.97
2018-02-19T00:53:56.136Z,9.73
2018-02-19T00:56:23.821Z,8.00
2018-02-19T00:58:52.232Z,8.20
2018-02-19T01:01:19.905Z,7.60
2018-02-19T01:03:47.599Z,8.57
2018-02-19T01:06:15.258Z,12.33
2018-02-19T01:08:42.925Z,9.73
2018-02-19T01:11:10.600Z,11.40
2018-02-19T01:13:39.079Z,10.07
2018-02-19T01:16:07.496Z,8.17
2018-02-19T01:18:35.145Z,10.13
2018-02-19T01:21:02.842Z,8.63
2018-02-19T01:23:30.526Z,7.30
2018-02-19T01:25:58.946Z,11.17
2018-02-19T01:28:26.615Z,7.70
2018-02-19T01:30:54.268Z,7.80
2018-02-19T01:33:21.999Z,8.90
2018-02-19T01:35:50.428Z,12.27
2018-02-19T01:38:18.076Z,7.50
2018-02-19T01:40:45.741Z,11.13
2018-02-19T01:43:13.433Z,13.23
2018-02-19T01:45:41.108Z,11.47
2018-02-19T01:48:08.778Z,9.47
2018-02-19T01:50:37.867Z,7.80
2018-02-19T01:53:05.527Z,8.20
2018-02-19T01:55:33.189Z,9.33
2018-02-19T01:58:00.849Z,8.63
2018-02-19T02:00:29.293Z,7.67
2018-02-19T02:02:57.032Z,8.90
2018-02-19T02:05:24.677Z,9.03
2018-02-19T02:07:53.192Z,9.83
2018-02-19T02:10:20.894Z,7.27
2018-02-19T02:12:48.551Z,10.73
2018-02-19T02:15:16.226Z,10.10
2018-02-19T02:17:44.633Z,7.67
2018-02-19T02:20:12.295Z,8.03
2018-02-19T02:22:39.950Z,10.50
2018-02-19T02:25:07.600Z,6.87
2018-02-19T02:27:36.012Z,9.60
2018-02-19T02:30:03.923Z,8.23
2018-02-19T02:32:32.343Z,8.03
2018-02-19T02:34:59.995Z,9.43
2018-02-19T02:37:27.666Z,8.60
2018-02-19T02:39:55.348Z,8.17
2018-02-19T02:42:23.016Z,9.40
2018-02-19T02:44:50.680Z,8.90
2018-02-19T02:47:19.080Z,7.87
2018-02-19T02:49:46.715Z,9.60
2018-02-19T02:52:14.473Z,6.87
2018-02-19T02:54:42.128Z,7.87
2018-02-19T02:57:09.760Z,11.03
2018-02-19T02:59:37.418Z,8.67
2018-02-19T03:02:05.086Z,7.50
2018-02-19T03:04:32.776Z,7.53
2018-02-19T03:07:00.486Z,8.40
2018-02-19T03:09:28.126Z,8.70
2018-02-19T03:11:56.696Z,9.97
2018-02-19T03:14:24.359Z,7.30
2018-02-19T03:16:52.036Z,9.83
2018-02-19T03:19:20.480Z,9.63
2018-02-19T03:21:48.134Z,7.17
2018-02-19T03:24:15.814Z,6.67
2018-02-19T03:26:43.507Z,11.20
2018-02-19T03:29:11.937Z,5.13
2018-02-19T03:31:39.612Z,6.67
2018-02-19T03:34:07.262Z,9.37
2018-02-19T03:36:34.923Z,7.60
2018-02-19T03:39:02.592Z,6.77
2018-02-19T03:41:30.270Z,7.83
2018-02-19T03:43:57.932Z,10.57
2018-02-19T03:46:25.661Z,10.67
2018-02-19T03:48:53.359Z,7.40
2018-02-19T03:51:21.802Z,6.53
2018-02-19T03:53:49.460Z,8.47
2018-02-19T03:56:17.123Z,9.10
2018-02-19T03:58:44.768Z,8.97
2018-02-19T04:01:12.469Z,7.73
2018-02-19T04:03:40.136Z,7.60
2018-02-19T04:06:07.796Z,11.17
2018-02-19T04:08:35.472Z,10.07
2018-02-19T04:11:03.887Z,9.97
2018-02-19T04:13:31.551Z,9.30
2018-02-19T04:16:00.043Z,12.50
2018-02-19T04:18:27.700Z,9.87
2018-02-19T04:20:55.374Z,7.80
2018-02-19T04:23:23.050Z,6.50
2018-02-19T04:25:50.724Z,12.80
2018-02-19T04:28:19.150Z,8.60
2018-02-19T04:30:46.835Z,10.73
2018-02-19T04:33:14.481Z,9.87
2018-02-19T04:35:42.942Z,7.53
2018-02-19T04:38:10.625Z,11.47
2018-02-19T04:40:38.276Z,9.63
2018-02-19T04:43:06.000Z,10.07
2018-02-19T04:45:37.100Z,13.57
2018-02-19T04:48:04.772Z,10.97
2018-02-19T04:50:32.432Z,10.23
2018-02-19T04:53:00.091Z,9.70
2018-02-19T04:55:27.771Z,9.77
2018-02-19T04:57:56.215Z,10.33
2018-02-19T05:00:23.914Z,12.03
2018-02-19T05:02:52.332Z,11.00
2018-02-19T05:05:19.993Z,11.50
2018-02-19T05:07:47.672Z,13.20
2018-02-19T05:10:15.348Z,8.80
2018-02-19T05:12:42.988Z,9.07
2018-02-19T05:15:10.635Z,11.37
2018-02-19T05:17:38.316Z,9.77
2018-02-19T05:20:05.955Z,9.27
2018-02-19T05:22:33.600Z,9.27
2018-02-19T05:25:01.261Z,13.97
2018-02-19T05:27:28.934Z,10.87
2018-02-19T05:29:56.595Z,11.97
2018-02-19T05:32:24.261Z,14.00
2018-02-19T05:34:51.923Z,10.93
2018-02-19T05:37:19.568Z,11.40
2018-02-19T05:39:47.234Z,11.43
2018-02-19T05:42:14.897Z,10.60
2018-02-19T05:44:42.533Z,12.03
2018-02-19T05:47:10.948Z,10.90
2018-02-19T05:49:38.632Z,11.20
2018-02-19T05:52:06.285Z,12.93
2018-02-19T05:54:33.929Z,10.67
2018-02-19T05:57:01.604Z,15.87
2018-02-19T05:59:29.245Z,13.93
2018-02-19T06:01:56.887Z,10.50
2018-02-19T06:04:24.552Z,12.57
2018-02-19T06:06:52.214Z,12.57
2018-02-19T06:09:19.848Z,10.20
2018-02-19T06:11:48.270Z,11.80
2018-02-19T06:14:15.924Z,12.43
2018-02-19T06:16:43.568Z,12.10
2018-02-19T06:19:11.207Z,11.73
2018-02-19T06:21:39.644Z,15.07
2018-02-19T06:24:07.312Z,12.00
2018-02-19T06:26:34.983Z,13.40
2018-02-19T06:29:02.630Z,11.73
2018-02-19T06:31:30.279Z,10.97
2018-02-19T06:33:58.691Z,15.40
2018-02-19T06:36:26.340Z,11.17
2018-02-19T06:38:54.010Z,10.10
2018-02-19T06:41:21.698Z,13.93
2018-02-19T06:43:49.451Z,12.80
2018-02-19T06:46:17.865Z,11.50
2018-02-19T06:48:45.499Z,11.00
2018-02-19T06:51:13.148Z,13.50
2018-02-19T06:53:41.558Z,15.33
2018-02-19T06:56:09.225Z,12.83
2018-02-19T06:58:36.885Z,11.23
2018-02-19T07:01:04.538Z,15.87
2018-02-19T07:03:32.203Z,17.33
2018-02-19T07:05:59.877Z,12.77
2018-02-19T07:08:28.312Z,15.10
2018-02-19T07:10:55.983Z,11.20
2018-02-19T07:13:23.673Z,17.00
2018-02-19T07:15:51.320Z,14.50
2018-02-19T07:18:19.002Z,10.37
2018-02-19T07:20:46.673Z,12.67
2018-02-19T07:23:14.371Z,13.97
2018-02-19T07:25:42.774Z,12.80
2018-02-19T07:28:10.412Z,13.23
2018-02-19T07:30:38.828Z,15.63
2018-02-19T07:33:06.497Z,14.77
2018-02-19T07:35:34.224Z,17.47
2018-02-19T07:38:02.005Z,13.50
2018-02-19T07:40:29.683Z,12.83
2018-02-19T07:42:57.334Z,18.67
2018-02-19T07:45:25.310Z,13.47
2018-02-19T07:47:52.973Z,15.40
2018-02-19T07:50:20.656Z,18.17
2018-02-19T07:52:48.304Z,13.90
2018-02-19T07:55:16.028Z,16.50
2018-02-19T07:57:43.667Z,12.83
2018-02-19T08:00:12.096Z,14.10
2018-02-19T08:02:39.822Z,14.17
2018-02-19T08:05:07.481Z,13.70
2018-02-19T08:07:35.128Z,15.13
2018-02-19T08:10:03.584Z,15.80
2018-02-19T08:12:31.300Z,11.03
2018-02-19T08:14:59.697Z,12.23
2018-02-19T08:17:27.351Z,12.57
2018-02-19T08:19:54.991Z,10.93
2018-02-19T08:22:23.527Z,12.87
2018-02-19T08:24:51.184Z,10.60
2018-02-19T08:27:18.834Z,13.67
2018-02-19T08:29:46.472Z,14.40
2018-02-19T08:32:14.137Z,12.00
2018-02-19T08:34:42.601Z,13.17
2018-02-19T08:37:10.251Z,14.43
2018-02-19T08:39:37.889Z,12.43
2018-02-19T08:42:06.313Z,11.30
2018-02-19T08:44:33.964Z,12.67
2018-02-19T08:47:01.634Z,12.20
2018-02-19T08:49:29.323Z,14.60
2018-02-19T08:51:56.982Z,10.40
2018-02-19T08:54:24.655Z,11.60
2018-02-19T08:56:52.297Z,12.50
2018-02-19T08:59:19.963Z,12.83
2018-02-19T09:01:47.622Z,12.10
2018-02-19T09:04:15.289Z,11.93
2018-02-19T09:06:42.955Z,12.83
2018-02-19T09:09:10.596Z,12.13
2018-02-19T09:11:39.008Z,13.13
2018-02-19T09:14:07.449Z,14.53
2018-02-19T09:16:35.151Z,10.17
2018-02-19T09:19:03.613Z,11.57
2018-02-19T09:21:31.293Z,12.07
2018-02-19T09:23:59.718Z,14.10
2018-02-19T09:26:27.387Z,11.03
2018-02-19T09:28:55.804Z,14.47
2018-02-19T09:31:24.248Z,12.37
2018-02-19T09:33:51.900Z,15.80
2018-02-19T09:36:19.567Z,15.40
2018-02-19T09:38:47.213Z,13.63
2018-02-19T09:41:14.851Z,13.17
2018-02-19T09:43:42.527Z,14.50
2018-02-19T09:46:10.182Z,14.60
2018-02-19T09:48:37.913Z,15.97
2018-02-19T09:51:06.378Z,14.20
2018-02-19T09:53:34.796Z,13.33
2018-02-19T09:56:02.431Z,11.80
2018-02-19T09:58:30.923Z,15.10
2018-02-19T10:00:58.616Z,14.77
2018-02-19T10:03:26.284Z,15.53
2018-02-19T10:05:53.927Z,12.93
2018-02-19T10:08:21.578Z,16.77
2018-02-19T10:10:49.237Z,11.07
2018-02-19T10:13:16.883Z,11.13
2018-02-19T10:15:44.535Z,12.27
2018-02-19T10:18:12.944Z,12.63
2018-02-19T10:20:40.577Z,13.13
2018-02-19T10:23:09.040Z,12.87
2018-02-19T10:25:37.472Z,13.93
2018-02-19T10:28:05.174Z,14.03
2018-02-19T10:30:32.844Z,13.13
2018-02-19T10:33:01.278Z,12.20
2018-02-19T10:35:28.912Z,12.50
2018-02-19T10:37:56.555Z,12.77
2018-02-19T10:40:25.034Z,12.23
2018-02-19T10:42:53.443Z,12.87
2018-02-19T10:45:21.167Z,12.10
2018-02-19T10:47:49.583Z,13.90
2018-02-19T10:50:17.231Z,14.67
2018-02-19T10:52:44.907Z,13.40
2018-02-19T10:55:12.583Z,15.03
2018-02-19T10:57:40.264Z,15.67
2018-02-19T11:00:08.178Z,13.30
2018-02-19T11:02:35.834Z,14.50
2018-02-19T11:05:03.489Z,13.17
2018-02-19T11:07:31.147Z,11.90
2018-02-19T11:09:59.565Z,13.93
2018-02-19T11:12:27.230Z,14.33
2018-02-19T11:14:54.917Z,12.80
2018-02-19T11:17:22.588Z,13.33
2018-02-19T11:19:50.226Z,14.53
2018-02-19T11:22:17.898Z,12.37
2018-02-19T11:24:45.547Z,14.97
2018-02-19T11:27:13.220Z,12.50
2018-02-19T11:29:40.880Z,12.33
2018-02-19T11:32:08.519Z,11.73
2018-02-19T11:34:36.176Z,14.80
2018-02-19T11:37:03.911Z,16.33
2018-02-19T11:39:31.566Z,12.97
2018-02-19T11:41:59.215Z,13.73
2018-02-19T11:44:27.632Z,14.80
2018-02-19T11:46:55.264Z,13.50
2018-02-19T11:49:22.957Z,10.77
2018-02-19T11:51:50.612Z,13.43
2018-02-19T11:54:18.248Z,13.43
2018-02-19T11:56:45.911Z,17.87
2018-02-19T11:59:13.564Z,16.17
2018-02-19T12:01:41.198Z,14.10
2018-02-19T12:04:09.603Z,14.70
2018-02-19T12:06:37.252Z,18.90
2018-02-19T12:09:05.673Z,14.87
2018-02-19T12:11:33.313Z,13.63
2018-02-19T12:14:00.968Z,14.97
2018-02-19T12:16:28.631Z,15.37
2018-02-19T12:18:56.267Z,15.00
2018-02-19T12:21:24.698Z,12.27
2018-02-19T12:23:52.348Z,12.43
2018-02-19T12:26:20.082Z,12.87
2018-02-19T12:28:47.773Z,13.83
2018-02-19T12:31:15.440Z,15.20
2018-02-19T12:33:43.113Z,14.90
2018-02-19T12:36:10.759Z,13.30
2018-02-19T12:38:39.167Z,14.67
2018-02-19T12:41:06.818Z,14.17
2018-02-19T12:43:34.539Z,11.73
2018-02-19T12:46:02.225Z,15.30
2018-02-19T12:48:29.914Z,13.67
2018-02-19T12:50:58.352Z,13.70
2018-02-19T12:53:26.050Z,12.17
2018-02-19T12:55:53.697Z,14.50
2018-02-19T12:58:21.348Z,16.40
2018-02-19T13:00:49.058Z,14.07
2018-02-19T13:03:16.799Z,14.07
2018-02-19T13:05:44.482Z,12.23
2018-02-19T13:08:12.915Z,15.10
2018-02-19T13:10:40.588Z,13.03
2018-02-19T13:13:08.254Z,14.90
2018-02-19T13:15:35.927Z,15.03
2018-02-19T13:18:04.360Z,15.13
2018-02-19T13:20:32.006Z,11.40
2018-02-19T13:22:59.661Z,13.57
2018-02-19T13:25:27.320Z,16.33
2018-02-19T13:27:54.966Z,13.17
2018-02-19T13:30:22.623Z,15.73
2018-02-19T13:32:51.066Z,13.43
2018-02-19T13:35:18.713Z,12.70
2018-02-19T13:37:46.371Z,15.43
2018-02-19T13:40:14.022Z,13.33
2018-02-19T13:42:41.687Z,14.53
2018-02-19T13:45:09.379Z,14.77
2018-02-19T13:47:37.055Z,16.57
2018-02-19T13:50:05.516Z,15.40
2018-02-19T13:52:33.211Z,14.33
2018-02-19T13:55:00.867Z,14.80
2018-02-19T13:57:29.303Z,14.50
2018-02-19T13:59:56.965Z,14.83
2018-02-19T14:02:24.623Z,17.73
2018-02-19T14:04:52.344Z,16.00
2018-02-19T14:07:19.997Z,14.37
2018-02-19T14:09:47.670Z,12.53
2018-02-19T14:12:15.330Z,13.23
2018-02-19T14:14:43.002Z,17.77
2018-02-19T14:17:10.685Z,13.53
2018-02-19T14:19:38.348Z,13.90
2018-02-19T14:22:06.008Z,13.47
2018-02-19T14:24:34.452Z,16.20
2018-02-19T14:27:02.126Z,13.77
2018-02-19T14:29:29.800Z,15.63
2018-02-19T14:31:57.470Z,14.70
2018-02-19T14:34:25.135Z,13.97
2018-02-19T14:36:52.865Z,14.30
2018-02-19T14:39:20.539Z,13.90
2018-02-19T14:41:48.230Z,13.20
2018-02-19T14:44:15.984Z,13.90
2018-02-19T14:46:43.666Z,17.30
2018-02-19T14:49:12.080Z,18.33
2018-02-19T14:51:39.748Z,14.27
2018-02-19T14:54:07.470Z,18.20
2018-02-19T14:56:35.917Z,15.40
2018-02-19T14:59:03.617Z,15.13
2018-02-19T15:01:32.022Z,14.67
2018-02-19T15:03:59.707Z,12.53
2018-02-19T15:06:27.368Z,14.20
2018-02-19T15:08:55.054Z,11.60
2018-02-19T15:11:22.774Z,14.53
2018-02-19T15:13:50.467Z,13.30
2018-02-19T15:16:18.175Z,16.80
2018-02-19T15:18:45.886Z,16.00
2018-02-19T15:21:13.540Z,14.17
2018-02-19T15:23:41.213Z,11.00
2018-02-19T15:26:10.601Z,15.30
2018-02-19T15:28:38.461Z,15.03
2018-02-19T15:31:06.113Z,15.70
2018-02-19T15:33:33.786Z,14.93
2018-02-19T15:36:01.441Z,15.30
2018-02-19T15:38:29.159Z,12.17
2018-02-19T15:40:57.610Z,15.03
2018-02-19T15:43:25.286Z,12.70
2018-02-19T15:45:53.703Z,18.30
2018-02-19T15:48:21.348Z,14.70
2018-02-19T15:50:48.982Z,13.30
2018-02-19T15:53:17.470Z,13.47
2018-02-19T15:55:45.904Z,17.57
2018-02-19T15:58:13.569Z,14.20
2018-02-19T16:00:41.211Z,12.97
2018-02-19T16:03:08.855Z,14.83
2018-02-19T16:05:36.487Z,15.10
2018-02-19T16:08:04.915Z,15.23
2018-02-19T16:10:32.681Z,13.50
2018-02-19T16:13:01.141Z,13.10
2018-02-19T16:15:28.791Z,14.20
2018-02-19T16:17:56.439Z,13.93
2018-02-19T16:20:24.898Z,14.40
2018-02-19T16:22:52.564Z,15.40
2018-02-19T16:25:21.039Z,14.70
2018-02-19T16:27:48.682Z,13.23
2018-02-19T16:30:16.347Z,14.13
2018-02-19T16:32:43.993Z,13.73
2018-02-19T16:35:11.766Z,16.00
2018-02-19T16:37:39.458Z,17.47
2018-02-19T16:40:07.904Z,13.80
2018-02-19T16:42:35.557Z,17.87
2018-02-19T16:45:03.257Z,16.30
2018-02-19T16:47:31.699Z,16.93
2018-02-19T16:49:59.383Z,17.53
2018-02-19T16:52:27.211Z,14.00
2018-02-19T16:54:55.282Z,16.23
2018-02-19T16:57:22.964Z,16.60
2018-02-19T16:59:50.615Z,16.20
2018-02-19T17:02:19.067Z,13.63
2018-02-19T17:04:46.787Z,16.67
2018-02-19T17:07:15.220Z,17.20
2018-02-19T17:09:43.631Z,18.87
2018-02-19T17:12:11.319Z,17.23
2018-02-19T17:14:41.893Z,16.63
2018-02-19T17:17:11.942Z,16.63
2018-02-19T17:19:40.404Z,14.83
2018-02-19T17:22:08.116Z,19.93
2018-02-19T17:24:35.786Z,15.57
2018-02-19T17:27:03.510Z,21.57
2018-02-19T17:29:31.967Z,16.93
2018-02-19T17:31:59.656Z,21.17
2018-02-19T17:34:28.144Z,17.33
2018-02-19T17:36:56.571Z,17.37
2018-02-19T17:39:24.226Z,21.00
2018-02-19T17:41:52.252Z,13.17
2018-02-19T17:44:20.958Z,16.50
2018-02-19T17:46:48.678Z,14.53
2018-02-19T17:49:16.326Z,16.50
2018-02-19T17:51:44.011Z,25.77
2018-02-19T17:54:12.429Z,18.97
2018-02-19T17:56:40.099Z,16.10
2018-02-19T17:59:08.095Z,18.13
2018-02-19T18:01:35.743Z,14.43
2018-02-19T18:04:03.439Z,14.43
2018-02-19T18:06:31.850Z,17.20
2018-02-19T18:09:01.100Z,14.80
2018-02-19T18:11:28.741Z,19.53
2018-02-19T18:13:56.388Z,16.70
2018-02-19T18:16:24.063Z,16.13
2018-02-19T18:18:51.834Z,20.30
2018-02-19T18:21:19.681Z,15.47
2018-02-19T18:23:47.452Z,15.93
2018-02-19T18:26:15.123Z,16.47
2018-02-19T18:28:42.779Z,15.93
2018-02-19T18:31:10.472Z,17.80
2018-02-19T18:33:38.916Z,18.80
2018-02-19T18:36:06.618Z,18.97
2018-02-19T18:38:35.146Z,15.67
2018-02-19T18:41:02.819Z,16.83
2018-02-19T18:43:30.494Z,16.03
2018-02-19T18:45:58.994Z,20.77
2018-02-19T18:48:27.484Z,16.83
2018-02-19T18:50:55.954Z,18.23
2018-02-19T18:53:24.399Z,20.20
2018-02-19T18:55:52.092Z,17.07
2018-02-19T18:58:20.574Z,16.73
2018-02-19T19:00:49.031Z,21.57
2018-02-19T19:03:16.724Z,17.53
2018-02-19T19:05:44.458Z,19.97
2018-02-19T19:08:38.723Z,16.30
2018-02-19T19:11:06.399Z,16.53
2018-02-19T19:13:34.075Z,17.93
2018-02-19T19:16:01.847Z,17.87
2018-02-19T19:18:30.283Z,23.63
2018-02-19T19:20:57.955Z,16.87
2018-02-19T19:23:25.676Z,19.27
2018-02-19T19:25:53.368Z,17.57
2018-02-19T19:28:21.053Z,18.50
2018-02-19T19:30:48.723Z,15.77
2018-02-19T19:33:17.180Z,19.90
2018-02-19T19:35:44.882Z,18.17
2018-02-19T19:38:12.559Z,19.27
2018-02-19T19:40:40.240Z,19.70
2018-02-19T19:43:07.960Z,17.40
2018-02-19T19:45:36.405Z,18.23
2018-02-19T19:48:04.101Z,19.80
2018-02-19T19:50:32.543Z,19.52
2018-02-19T19:53:00.290Z,19.67
2018-02-19T19:55:28.089Z,20.07
2018-02-19T19:57:55.782Z,22.80
2018-02-19T20:00:23.692Z,22.07
2018-02-19T20:02:51.367Z,22.87
2018-02-19T20:05:19.062Z,25.13
2018-02-19T20:07:46.746Z,27.10
2018-02-19T20:10:14.430Z,27.10
2018-02-19T20:12:43.045Z,29.20
2018-02-19T20:15:10.743Z,24.33
2018-02-19T20:17:38.437Z,22.63
2018-02-19T20:20:06.896Z,25.27
2018-02-19T20:22:34.603Z,24.80
2018-02-19T20:25:02.312Z,22.17
2018-02-19T20:27:29.999Z,23.60
2018-02-19T20:29:57.754Z,25.27
2018-02-19T20:32:25.500Z,23.60
2018-02-19T20:34:53.188Z,23.60
2018-02-19T20:37:20.884Z,24.93
2018-02-19T20:39:49.363Z,22.53
2018-02-19T20:42:17.843Z,20.80
2018-02-19T20:44:46.304Z,19.83
2018-02-19T20:47:13.991Z,21.70
2018-02-19T20:49:42.611Z,25.13
2018-02-19T20:52:10.364Z,26.33
2018-02-19T20:54:38.530Z,26.80
2018-02-19T20:57:06.812Z,24.40
2018-02-19T20:59:34.516Z,22.90
2018-02-19T21:02:02.290Z,25.90
2018-02-19T21:04:29.995Z,24.97
2018-02-19T21:06:57.792Z,30.07
2018-02-19T21:09:25.519Z,26.80
2018-02-19T21:11:54.206Z,26.93
2018-02-19T21:14:21.885Z,26.30
2018-02-19T21:16:49.583Z,30.83
2018-02-19T21:19:17.272Z,30.87
2018-02-19T21:21:44.997Z,23.60
2018-02-19T21:24:14.422Z,23.30
2018-02-19T21:26:42.890Z,35.73
2018-02-19T21:29:10.938Z,28.10
2018-02-19T21:31:38.651Z,25.43
2018-02-19T21:34:07.587Z,23.67
2018-02-19T21:36:35.385Z,25.23
2018-02-19T21:39:04.696Z,29.77
2018-02-19T21:41:33.143Z,25.90
2018-02-19T21:44:00.812Z,26.97
2018-02-19T21:46:28.851Z,23.80
2018-02-19T21:48:56.692Z,26.23
2018-02-19T21:51:24.464Z,26.23
2018-02-19T21:53:52.153Z,26.20
2018-02-19T21:56:19.854Z,24.57
2018-02-19T21:58:48.359Z,23.63
2018-02-19T22:01:16.047Z,22.70
2018-02-19T22:03:43.716Z,26.73
2018-02-19T22:06:11.434Z,24.97
2018-02-19T22:08:39.140Z,25.13
2018-02-19T22:11:06.827Z,22.80
2018-02-19T22:13:35.305Z,26.87
2018-02-19T22:16:02.986Z,23.63
2018-02-19T22:18:30.650Z,22.03
2018-02-19T22:20:59.121Z,26.00
2018-02-19T22:23:27.602Z,25.83
2018-02-19T22:25:56.055Z,25.00
2018-02-19T22:28:23.778Z,26.17
2018-02-19T22:30:51.474Z,24.33
2018-02-19T22:33:19.158Z,23.33
2018-02-19T22:35:47.624Z,23.77
2018-02-19T22:38:15.303Z,23.87
2018-02-19T22:40:43.773Z,25.70
2018-02-19T22:43:12.206Z,21.80
2018-02-19T22:45:39.872Z,24.57
2018-02-19T22:48:07.547Z,22.77
2018-02-19T22:50:35.280Z,26.47
2018-02-19T22:53:03.018Z,24.20
2018-02-19T22:55:31.474Z,26.17
2018-02-19T22:57:59.152Z,25.90
2018-02-19T23:00:27.687Z,26.47
2018-02-19T23:02:55.445Z,24.63
2018-02-19T23:05:23.131Z,22.43
2018-02-19T23:07:50.847Z,23.40
2018-02-19T23:10:18.603Z,22.80
2018-02-19T23:12:46.316Z,25.63
2018-02-19T23:15:14.018Z,23.80
2018-02-19T23:17:41.739Z,26.37
2018-02-19T23:20:09.423Z,23.73
2018-02-19T23:22:37.911Z,23.27
2018-02-19T23:25:05.632Z,24.37
2018-02-19T23:27:33.380Z,21.50
2018-02-19T23:30:01.071Z,26.17
2018-02-19T23:32:28.858Z,28.07
2018-02-19T23:35:02.369Z,23.83
2018-02-19T23:37:25.097Z,24.43
2018-02-19T23:39:53.606Z,22.93
2018-02-19T23:42:21.326Z,22.50
2018-02-19T23:44:49.023Z,22.93
2018-02-19T23:47:16.736Z,28.50
2018-02-19T23:49:44.468Z,24.80
2018-02-19T23:52:12.215Z,23.93
2018-02-19T23:54:39.962Z,24.30
2018-02-19T23:57:07.683Z,26.17
2018-02-19T23:59:35.409Z,21.87
